Ana Sayfa
METAR-TAF:

METAR-TAF

Havaalanları :

Kars Harakani Havalimanı

Kars, Türkiye

Enlem: 40-36N, Boylam: 043-05E, yükseklik: 1775 m

Güncel hava durumu gözlemi

Rapor saat 15:50 UTC de 42 dakika önce yapıldı.
Rüzgar doğu/güneydoğudan 3 kt
Sıcaklık -9°C
Nem 92%
Basınç 1026 hPa
Görüş mesafesi 10 km veya daha fazla
1500 m altında bulut yok ve kümülonimbus yok

METAR: LTCF 151550Z 11003KT CAVOK M09/M10 Q1026

Saat: 19:32 (16:32 UTC)

Tahmin

Rapor saat 13:40 UTC de 2 saat ve 52 dakika önce yapıldı.
Ayın 15'si saat 15 UTC'den ayın 15'si saat 24 UTC'ye kadar geçerli Tahmin
Rüzgar değişken yönden 2 kt
Görüş mesafesi 10 km veya daha fazla
3500 ft yükseklikte parçalı bulutlu

TAF: LTCF 151340Z 1515/1524 VRB02KT 9999 SCT035

4.000'den fazla havaalanı için hava durumu gözlemleri ve tahminleri (METAR ve TAF raporları).

Kullanılabilir istasyonlar harita üzerinde sarı ve kırmızı noktalarla gösterilir.

İstasyonun adını görmek için fareyi noktanın üzerinde gezdirin.

Sonrasında hava gözlem ve tahminlerini görmek için tıklayın.

Haritayı değiştirmek için: yaklaştırmak için siyah artı işaretli yeşil düğmeye ve uzaklaştırmak için de eksi işaretli düğmeye hızla tıklayın; bitişik haritalar için yeşil okları kullanın.


METAR-TAF: